sensor_id;sensor_type;location;lat;lon;timestamp;P1;durP1;ratioP1;P2;durP2;ratioP2
42420;SDS011;28063;48.140;11.588;2023-04-10T00:01:03;5.32;;;4.00;;
42420;SDS011;28063;48.140;11.588;2023-04-10T00:03:30;4.40;;;3.42;;
42420;SDS011;28063;48.140;11.588;2023-04-10T00:05:55;5.35;;;3.58;;
42420;SDS011;28063;48.140;11.588;2023-04-10T00:08:22;5.35;;;3.70;;
42420;SDS011;28063;48.140;11.588;2023-04-10T00:10:48;5.28;;;3.85;;
42420;SDS011;28063;48.140;11.588;2023-04-10T00:13:14;4.80;;;3.42;;
42420;SDS011;28063;48.140;11.588;2023-04-10T00:15:41;3.90;;;3.30;;
42420;SDS011;28063;48.140;11.588;2023-04-10T00:18:07;5.15;;;3.47;;
42420;SDS011;28063;48.140;11.588;2023-04-10T00:20:33;5.22;;;3.75;;
42420;SDS011;28063;48.140;11.588;2023-04-10T00:22:58;3.80;;;3.10;;
42420;SDS011;28063;48.140;11.588;2023-04-10T00:25:24;3.95;;;3.20;;
42420;SDS011;28063;48.140;11.588;2023-04-10T00:27:50;3.22;;;2.67;;
42420;SDS011;28063;48.140;11.588;2023-04-10T00:30:19;4.05;;;2.97;;
42420;SDS011;28063;48.140;11.588;2023-04-10T00:32:45;5.22;;;3.40;;
42420;SDS011;28063;48.140;11.588;2023-04-10T00:35:11;3.55;;;2.58;;
42420;SDS011;28063;48.140;11.588;2023-04-10T00:37:37;4.05;;;2.75;;
42420;SDS011;28063;48.140;11.588;2023-04-10T00:40:03;3.88;;;2.72;;
42420;SDS011;28063;48.140;11.588;2023-04-10T00:42:30;4.05;;;2.80;;
42420;SDS011;28063;48.140;11.588;2023-04-10T00:44:56;3.35;;;2.70;;
42420;SDS011;28063;48.140;11.588;2023-04-10T00:47:22;2.92;;;2.30;;
42420;SDS011;28063;48.140;11.588;2023-04-10T00:49:49;3.63;;;2.55;;
42420;SDS011;28063;48.140;11.588;2023-04-10T00:52:15;3.20;;;2.28;;
42420;SDS011;28063;48.140;11.588;2023-04-10T00:54:41;2.60;;;2.10;;
42420;SDS011;28063;48.140;11.588;2023-04-10T00:57:07;2.60;;;2.08;;
42420;SDS011;28063;48.140;11.588;2023-04-10T00:59:33;3.33;;;2.60;;
42420;SDS011;28063;48.140;11.588;2023-04-10T01:01:59;2.53;;;2.08;;
42420;SDS011;28063;48.140;11.588;2023-04-10T01:04:25;2.85;;;2.03;;
42420;SDS011;28063;48.140;11.588;2023-04-10T01:10:09;2.30;;;1.88;;
42420;SDS011;28063;48.140;11.588;2023-04-10T01:15:55;2.85;;;2.13;;
42420;SDS011;28063;48.140;11.588;2023-04-10T01:18:43;2.30;;;2.00;;
42420;SDS011;28063;48.140;11.588;2023-04-10T01:21:14;2.55;;;1.88;;
42420;SDS011;28063;48.140;11.588;2023-04-10T01:29:35;2.65;;;1.90;;
42420;SDS011;28063;48.140;11.588;2023-04-10T01:32:04;1.75;;;1.50;;
42420;SDS011;28063;48.140;11.588;2023-04-10T01:34:37;2.25;;;1.70;;
42420;SDS011;28063;48.140;11.588;2023-04-10T01:37:15;2.42;;;2.08;;
42420;SDS011;28063;48.140;11.588;2023-04-10T01:39:56;2.38;;;2.10;;
42420;SDS011;28063;48.140;11.588;2023-04-10T01:42:25;3.72;;;2.90;;
42420;SDS011;28063;48.140;11.588;2023-04-10T01:44:56;4.18;;;3.13;;
42420;SDS011;28063;48.140;11.588;2023-04-10T01:47:23;4.75;;;3.58;;
42420;SDS011;28063;48.140;11.588;2023-04-10T01:49:50;5.60;;;3.42;;
42420;SDS011;28063;48.140;11.588;2023-04-10T01:52:21;4.22;;;2.92;;
42420;SDS011;28063;48.140;11.588;2023-04-10T01:54:48;3.78;;;2.83;;
42420;SDS011;28063;48.140;11.588;2023-04-10T01:57:16;4.45;;;3.00;;
42420;SDS011;28063;48.140;11.588;2023-04-10T01:59:43;5.07;;;3.13;;
42420;SDS011;28063;48.140;11.588;2023-04-10T02:02:08;4.65;;;3.03;;
42420;SDS011;28063;48.140;11.588;2023-04-10T02:04:36;4.68;;;2.97;;
42420;SDS011;28063;48.140;11.588;2023-04-10T02:07:02;4.50;;;3.25;;
42420;SDS011;28063;48.140;11.588;2023-04-10T02:14:31;4.68;;;3.28;;
42420;SDS011;28063;48.140;11.588;2023-04-10T02:16:58;4.70;;;2.78;;
42420;SDS011;28063;48.140;11.588;2023-04-10T02:19:26;4.55;;;2.85;;
42420;SDS011;28063;48.140;11.588;2023-04-10T02:21:52;2.88;;;2.30;;
42420;SDS011;28063;48.140;11.588;2023-04-10T02:24:19;3.05;;;2.20;;
42420;SDS011;28063;48.140;11.588;2023-04-10T02:26:46;3.03;;;2.25;;
42420;SDS011;28063;48.140;11.588;2023-04-10T02:29:12;2.35;;;2.10;;
42420;SDS011;28063;48.140;11.588;2023-04-10T02:31:38;2.55;;;2.15;;
42420;SDS011;28063;48.140;11.588;2023-04-10T02:34:05;2.80;;;2.00;;
42420;SDS011;28063;48.140;11.588;2023-04-10T02:36:31;2.42;;;1.88;;
42420;SDS011;28063;48.140;11.588;2023-04-10T02:38:57;2.85;;;2.10;;
42420;SDS011;28063;48.140;11.588;2023-04-10T02:41:23;2.22;;;1.90;;
42420;SDS011;28063;48.140;11.588;2023-04-10T02:43:48;2.67;;;2.08;;
42420;SDS011;28063;48.140;11.588;2023-04-10T02:46:14;2.22;;;1.90;;
42420;SDS011;28063;48.140;11.588;2023-04-10T02:48:40;3.65;;;2.67;;
42420;SDS011;28063;48.140;11.588;2023-04-10T02:51:05;3.80;;;2.28;;
42420;SDS011;28063;48.140;11.588;2023-04-10T02:53:32;2.42;;;1.80;;
42420;SDS011;28063;48.140;11.588;2023-04-10T02:55:58;2.70;;;2.10;;
42420;SDS011;28063;48.140;11.588;2023-04-10T02:58:23;2.50;;;1.85;;
42420;SDS011;28063;48.140;11.588;2023-04-10T03:00:49;3.50;;;2.20;;
42420;SDS011;28063;48.140;11.588;2023-04-10T03:03:17;1.83;;;1.70;;
42420;SDS011;28063;48.140;11.588;2023-04-10T03:05:44;2.80;;;2.10;;
42420;SDS011;28063;48.140;11.588;2023-04-10T03:08:11;1.83;;;1.55;;
42420;SDS011;28063;48.140;11.588;2023-04-10T03:10:37;2.72;;;2.17;;
42420;SDS011;28063;48.140;11.588;2023-04-10T03:13:03;2.92;;;2.30;;
42420;SDS011;28063;48.140;11.588;2023-04-10T03:15:29;2.55;;;1.65;;
42420;SDS011;28063;48.140;11.588;2023-04-10T03:17:56;2.88;;;1.77;;
42420;SDS011;28063;48.140;11.588;2023-04-10T03:20:21;2.22;;;1.90;;
42420;SDS011;28063;48.140;11.588;2023-04-10T03:22:47;3.13;;;2.15;;
42420;SDS011;28063;48.140;11.588;2023-04-10T03:25:13;3.03;;;2.13;;
42420;SDS011;28063;48.140;11.588;2023-04-10T03:27:38;2.70;;;1.90;;
42420;SDS011;28063;48.140;11.588;2023-04-10T03:30:04;3.70;;;2.35;;
42420;SDS011;28063;48.140;11.588;2023-04-10T03:32:30;2.63;;;1.85;;
42420;SDS011;28063;48.140;11.588;2023-04-10T03:34:56;2.22;;;1.85;;
42420;SDS011;28063;48.140;11.588;2023-04-10T03:37:23;2.47;;;1.92;;
42420;SDS011;28063;48.140;11.588;2023-04-10T03:39:49;2.55;;;2.05;;
42420;SDS011;28063;48.140;11.588;2023-04-10T03:42:15;2.30;;;1.70;;
42420;SDS011;28063;48.140;11.588;2023-04-10T03:44:40;2.47;;;2.00;;
42420;SDS011;28063;48.140;11.588;2023-04-10T03:47:06;3.90;;;1.95;;
42420;SDS011;28063;48.140;11.588;2023-04-10T03:49:31;3.47;;;2.42;;
42420;SDS011;28063;48.140;11.588;2023-04-10T03:51:57;3.40;;;2.47;;
42420;SDS011;28063;48.140;11.588;2023-04-10T03:54:23;5.00;;;2.70;;
42420;SDS011;28063;48.140;11.588;2023-04-10T03:56:49;3.90;;;2.75;;
42420;SDS011;28063;48.140;11.588;2023-04-10T03:59:14;3.85;;;2.80;;
42420;SDS011;28063;48.140;11.588;2023-04-10T04:01:40;5.05;;;3.25;;
42420;SDS011;28063;48.140;11.588;2023-04-10T04:04:06;5.38;;;3.08;;
42420;SDS011;28063;48.140;11.588;2023-04-10T04:06:31;5.55;;;3.47;;
42420;SDS011;28063;48.140;11.588;2023-04-10T04:08:57;4.70;;;3.42;;
42420;SDS011;28063;48.140;11.588;2023-04-10T04:11:23;4.30;;;2.95;;
42420;SDS011;28063;48.140;11.588;2023-04-10T04:13:48;5.13;;;3.17;;
42420;SDS011;28063;48.140;11.588;2023-04-10T04:16:14;6.05;;;4.10;;
42420;SDS011;28063;48.140;11.588;2023-04-10T04:18:40;7.50;;;5.25;;
42420;SDS011;28063;48.140;11.588;2023-04-10T04:21:06;7.63;;;4.82;;
42420;SDS011;28063;48.140;11.588;2023-04-10T04:23:32;6.82;;;5.05;;
42420;SDS011;28063;48.140;11.588;2023-04-10T04:25:58;6.65;;;4.40;;
42420;SDS011;28063;48.140;11.588;2023-04-10T04:28:24;6.88;;;4.50;;
42420;SDS011;28063;48.140;11.588;2023-04-10T04:30:49;6.60;;;4.70;;
42420;SDS011;28063;48.140;11.588;2023-04-10T04:33:15;5.88;;;4.15;;
42420;SDS011;28063;48.140;11.588;2023-04-10T04:35:40;8.38;;;5.40;;
42420;SDS011;28063;48.140;11.588;2023-04-10T04:38:06;5.63;;;3.90;;
42420;SDS011;28063;48.140;11.588;2023-04-10T04:40:35;5.97;;;3.95;;
42420;SDS011;28063;48.140;11.588;2023-04-10T04:43:00;5.53;;;4.10;;
42420;SDS011;28063;48.140;11.588;2023-04-10T04:45:26;6.47;;;4.22;;
42420;SDS011;28063;48.140;11.588;2023-04-10T04:47:54;5.82;;;3.83;;
42420;SDS011;28063;48.140;11.588;2023-04-10T04:50:22;5.55;;;3.80;;
42420;SDS011;28063;48.140;11.588;2023-04-10T04:52:48;5.43;;;3.55;;
42420;SDS011;28063;48.140;11.588;2023-04-10T04:55:14;5.15;;;3.65;;
42420;SDS011;28063;48.140;11.588;2023-04-10T04:57:40;5.18;;;3.38;;
42420;SDS011;28063;48.140;11.588;2023-04-10T05:00:05;4.93;;;3.33;;
42420;SDS011;28063;48.140;11.588;2023-04-10T05:02:31;3.63;;;3.05;;
42420;SDS011;28063;48.140;11.588;2023-04-10T05:04:57;4.32;;;2.97;;
42420;SDS011;28063;48.140;11.588;2023-04-10T05:07:23;4.38;;;2.78;;
42420;SDS011;28063;48.140;11.588;2023-04-10T05:09:49;3.20;;;2.70;;
42420;SDS011;28063;48.140;11.588;2023-04-10T05:12:15;3.20;;;1.80;;
42420;SDS011;28063;48.140;11.588;2023-04-10T05:14:40;3.00;;;2.38;;
42420;SDS011;28063;48.140;11.588;2023-04-10T05:17:06;3.80;;;2.92;;
42420;SDS011;28063;48.140;11.588;2023-04-10T05:19:31;3.30;;;2.38;;
42420;SDS011;28063;48.140;11.588;2023-04-10T05:21:57;2.55;;;2.35;;
42420;SDS011;28063;48.140;11.588;2023-04-10T05:24:22;5.15;;;2.80;;
42420;SDS011;28063;48.140;11.588;2023-04-10T05:26:48;2.70;;;2.10;;
42420;SDS011;28063;48.140;11.588;2023-04-10T05:29:14;3.85;;;2.60;;
42420;SDS011;28063;48.140;11.588;2023-04-10T05:31:39;2.92;;;2.42;;
42420;SDS011;28063;48.140;11.588;2023-04-10T05:34:05;3.00;;;2.13;;
42420;SDS011;28063;48.140;11.588;2023-04-10T05:36:31;3.35;;;2.00;;
42420;SDS011;28063;48.140;11.588;2023-04-10T05:38:56;2.13;;;1.92;;
42420;SDS011;28063;48.140;11.588;2023-04-10T05:41:22;2.05;;;1.73;;
42420;SDS011;28063;48.140;11.588;2023-04-10T05:43:48;5.95;;;3.88;;
42420;SDS011;28063;48.140;11.588;2023-04-10T05:46:14;7.70;;;5.22;;
42420;SDS011;28063;48.140;11.588;2023-04-10T05:48:40;7.07;;;4.75;;
42420;SDS011;28063;48.140;11.588;2023-04-10T05:51:06;6.60;;;4.70;;
42420;SDS011;28063;48.140;11.588;2023-04-10T05:53:31;6.72;;;4.50;;
42420;SDS011;28063;48.140;11.588;2023-04-10T05:55:57;5.47;;;4.30;;
42420;SDS011;28063;48.140;11.588;2023-04-10T05:58:26;6.43;;;3.67;;
42420;SDS011;28063;48.140;11.588;2023-04-10T06:00:53;5.03;;;3.78;;
42420;SDS011;28063;48.140;11.588;2023-04-10T06:03:20;3.80;;;2.83;;
42420;SDS011;28063;48.140;11.588;2023-04-10T06:05:46;4.47;;;2.92;;
42420;SDS011;28063;48.140;11.588;2023-04-10T06:08:12;5.10;;;3.53;;
42420;SDS011;28063;48.140;11.588;2023-04-10T06:10:38;4.82;;;3.28;;
42420;SDS011;28063;48.140;11.588;2023-04-10T06:13:04;4.20;;;3.08;;
42420;SDS011;28063;48.140;11.588;2023-04-10T06:15:30;4.85;;;3.65;;
42420;SDS011;28063;48.140;11.588;2023-04-10T06:17:56;5.15;;;3.50;;
42420;SDS011;28063;48.140;11.588;2023-04-10T06:20:22;4.55;;;3.50;;
42420;SDS011;28063;48.140;11.588;2023-04-10T06:22:47;4.65;;;3.50;;
42420;SDS011;28063;48.140;11.588;2023-04-10T06:25:13;5.07;;;3.38;;
42420;SDS011;28063;48.140;11.588;2023-04-10T06:27:39;4.20;;;2.90;;
42420;SDS011;28063;48.140;11.588;2023-04-10T06:30:05;4.80;;;3.22;;
42420;SDS011;28063;48.140;11.588;2023-04-10T06:32:31;3.08;;;2.70;;
42420;SDS011;28063;48.140;11.588;2023-04-10T06:34:57;4.25;;;2.80;;
42420;SDS011;28063;48.140;11.588;2023-04-10T06:37:26;7.28;;;4.57;;
42420;SDS011;28063;48.140;11.588;2023-04-10T06:40:02;6.07;;;4.72;;
42420;SDS011;28063;48.140;11.588;2023-04-10T06:42:32;5.75;;;4.07;;
42420;SDS011;28063;48.140;11.588;2023-04-10T06:44:58;6.07;;;4.57;;
42420;SDS011;28063;48.140;11.588;2023-04-10T06:47:24;6.53;;;4.22;;
42420;SDS011;28063;48.140;11.588;2023-04-10T06:49:50;5.65;;;4.25;;
42420;SDS011;28063;48.140;11.588;2023-04-10T06:52:16;7.70;;;5.45;;
42420;SDS011;28063;48.140;11.588;2023-04-10T06:54:42;6.50;;;4.50;;
42420;SDS011;28063;48.140;11.588;2023-04-10T06:57:08;5.55;;;3.97;;
42420;SDS011;28063;48.140;11.588;2023-04-10T06:59:33;7.43;;;5.00;;
42420;SDS011;28063;48.140;11.588;2023-04-10T07:01:59;6.57;;;4.75;;
42420;SDS011;28063;48.140;11.588;2023-04-10T07:04:27;6.00;;;4.50;;
42420;SDS011;28063;48.140;11.588;2023-04-10T07:06:52;6.20;;;4.40;;
42420;SDS011;28063;48.140;11.588;2023-04-10T07:09:18;4.35;;;3.47;;
42420;SDS011;28063;48.140;11.588;2023-04-10T07:11:44;7.18;;;4.82;;
42420;SDS011;28063;48.140;11.588;2023-04-10T07:14:10;8.27;;;5.65;;
42420;SDS011;28063;48.140;11.588;2023-04-10T07:16:35;7.05;;;5.07;;
42420;SDS011;28063;48.140;11.588;2023-04-10T07:19:01;7.22;;;4.63;;
42420;SDS011;28063;48.140;11.588;2023-04-10T07:21:27;6.85;;;4.90;;
42420;SDS011;28063;48.140;11.588;2023-04-10T07:23:53;7.60;;;4.90;;
42420;SDS011;28063;48.140;11.588;2023-04-10T07:26:19;6.88;;;4.70;;
42420;SDS011;28063;48.140;11.588;2023-04-10T07:28:45;6.43;;;5.05;;
42420;SDS011;28063;48.140;11.588;2023-04-10T07:31:11;7.60;;;5.28;;
42420;SDS011;28063;48.140;11.588;2023-04-10T07:33:38;8.32;;;6.05;;
42420;SDS011;28063;48.140;11.588;2023-04-10T07:36:04;7.03;;;5.20;;
42420;SDS011;28063;48.140;11.588;2023-04-10T07:38:31;5.80;;;4.63;;
42420;SDS011;28063;48.140;11.588;2023-04-10T07:40:57;5.82;;;4.50;;
42420;SDS011;28063;48.140;11.588;2023-04-10T07:43:23;6.45;;;4.72;;
42420;SDS011;28063;48.140;11.588;2023-04-10T07:45:50;5.05;;;4.40;;
42420;SDS011;28063;48.140;11.588;2023-04-10T07:48:16;7.32;;;5.20;;
42420;SDS011;28063;48.140;11.588;2023-04-10T07:50:42;5.22;;;4.15;;
42420;SDS011;28063;48.140;11.588;2023-04-10T07:53:08;5.32;;;4.65;;
42420;SDS011;28063;48.140;11.588;2023-04-10T07:55:37;5.40;;;4.13;;
42420;SDS011;28063;48.140;11.588;2023-04-10T07:58:07;4.47;;;3.80;;
42420;SDS011;28063;48.140;11.588;2023-04-10T08:00:35;5.10;;;4.03;;
42420;SDS011;28063;48.140;11.588;2023-04-10T08:03:02;4.65;;;3.63;;
42420;SDS011;28063;48.140;11.588;2023-04-10T08:05:28;4.75;;;3.60;;
42420;SDS011;28063;48.140;11.588;2023-04-10T08:07:55;4.43;;;3.75;;
42420;SDS011;28063;48.140;11.588;2023-04-10T08:10:20;4.47;;;3.95;;
42420;SDS011;28063;48.140;11.588;2023-04-10T08:12:46;6.10;;;4.57;;
42420;SDS011;28063;48.140;11.588;2023-04-10T08:15:12;4.30;;;3.75;;
42420;SDS011;28063;48.140;11.588;2023-04-10T08:17:38;4.55;;;3.88;;
42420;SDS011;28063;48.140;11.588;2023-04-10T08:20:04;3.72;;;3.28;;
42420;SDS011;28063;48.140;11.588;2023-04-10T08:22:30;4.20;;;3.42;;
42420;SDS011;28063;48.140;11.588;2023-04-10T08:24:56;4.72;;;3.83;;
42420;SDS011;28063;48.140;11.588;2023-04-10T08:27:22;4.95;;;4.28;;
42420;SDS011;28063;48.140;11.588;2023-04-10T08:29:47;5.30;;;4.38;;
42420;SDS011;28063;48.140;11.588;2023-04-10T08:32:13;5.30;;;3.97;;
42420;SDS011;28063;48.140;11.588;2023-04-10T08:34:38;4.45;;;3.97;;
42420;SDS011;28063;48.140;11.588;2023-04-10T08:37:04;4.65;;;3.60;;
42420;SDS011;28063;48.140;11.588;2023-04-10T08:39:33;5.63;;;4.38;;
42420;SDS011;28063;48.140;11.588;2023-04-10T08:42:02;5.10;;;4.28;;
42420;SDS011;28063;48.140;11.588;2023-04-10T08:44:29;5.15;;;4.20;;
42420;SDS011;28063;48.140;11.588;2023-04-10T08:46:57;4.90;;;4.45;;
42420;SDS011;28063;48.140;11.588;2023-04-10T08:49:36;6.13;;;4.80;;
42420;SDS011;28063;48.140;11.588;2023-04-10T08:52:08;4.43;;;4.03;;
42420;SDS011;28063;48.140;11.588;2023-04-10T08:54:46;4.10;;;3.70;;
42420;SDS011;28063;48.140;11.588;2023-04-10T08:57:14;4.72;;;4.07;;
42420;SDS011;28063;48.140;11.588;2023-04-10T08:59:42;3.58;;;3.20;;
42420;SDS011;28063;48.140;11.588;2023-04-10T09:02:08;4.00;;;3.20;;
42420;SDS011;28063;48.140;11.588;2023-04-10T09:04:33;3.22;;;2.92;;
42420;SDS011;28063;48.140;11.588;2023-04-10T09:07:00;4.03;;;3.53;;
42420;SDS011;28063;48.140;11.588;2023-04-10T09:09:26;3.38;;;3.05;;
42420;SDS011;28063;48.140;11.588;2023-04-10T09:11:56;3.38;;;2.92;;
42420;SDS011;28063;48.140;11.588;2023-04-10T09:14:33;4.07;;;3.20;;
42420;SDS011;28063;48.140;11.588;2023-04-10T09:19:42;4.00;;;3.50;;
42420;SDS011;28063;48.140;11.588;2023-04-10T09:22:09;4.82;;;4.03;;
42420;SDS011;28063;48.140;11.588;2023-04-10T09:24:36;6.45;;;4.40;;
42420;SDS011;28063;48.140;11.588;2023-04-10T09:27:06;4.60;;;3.97;;
42420;SDS011;28063;48.140;11.588;2023-04-10T09:29:40;3.47;;;3.17;;
42420;SDS011;28063;48.140;11.588;2023-04-10T09:32:12;4.22;;;3.88;;
42420;SDS011;28063;48.140;11.588;2023-04-10T09:34:54;4.03;;;3.63;;
42420;SDS011;28063;48.140;11.588;2023-04-10T09:37:29;3.22;;;2.88;;
42420;SDS011;28063;48.140;11.588;2023-04-10T09:39:56;4.25;;;3.17;;
42420;SDS011;28063;48.140;11.588;2023-04-10T09:42:34;3.65;;;3.00;;
42420;SDS011;28063;48.140;11.588;2023-04-10T09:45:01;3.65;;;3.10;;
42420;SDS011;28063;48.140;11.588;2023-04-10T09:47:28;3.42;;;2.95;;
42420;SDS011;28063;48.140;11.588;2023-04-10T09:49:58;4.50;;;3.88;;
42420;SDS011;28063;48.140;11.588;2023-04-10T09:52:26;3.97;;;3.47;;
42420;SDS011;28063;48.140;11.588;2023-04-10T09:55:02;3.30;;;2.63;;
42420;SDS011;28063;48.140;11.588;2023-04-10T09:57:29;3.30;;;3.00;;
42420;SDS011;28063;48.140;11.588;2023-04-10T10:00:00;4.13;;;2.70;;
42420;SDS011;28063;48.140;11.588;2023-04-10T10:02:35;3.47;;;3.15;;
42420;SDS011;28063;48.140;11.588;2023-04-10T10:05:04;3.17;;;2.25;;
42420;SDS011;28063;48.140;11.588;2023-04-10T10:07:30;2.75;;;2.53;;
42420;SDS011;28063;48.140;11.588;2023-04-10T10:09:56;3.22;;;2.83;;
42420;SDS011;28063;48.140;11.588;2023-04-10T10:12:23;3.25;;;2.58;;
42420;SDS011;28063;48.140;11.588;2023-04-10T10:15:13;3.00;;;2.70;;
42420;SDS011;28063;48.140;11.588;2023-04-10T10:17:49;2.75;;;2.55;;
42420;SDS011;28063;48.140;11.588;2023-04-10T10:20:22;2.38;;;2.17;;
42420;SDS011;28063;48.140;11.588;2023-04-10T10:22:50;2.50;;;2.30;;
42420;SDS011;28063;48.140;11.588;2023-04-10T10:25:17;3.10;;;2.63;;
42420;SDS011;28063;48.140;11.588;2023-04-10T10:27:44;4.25;;;3.55;;
42420;SDS011;28063;48.140;11.588;2023-04-10T10:30:11;3.92;;;3.00;;
42420;SDS011;28063;48.140;11.588;2023-04-10T10:32:38;2.90;;;2.60;;
42420;SDS011;28063;48.140;11.588;2023-04-10T10:35:04;3.15;;;2.85;;
42420;SDS011;28063;48.140;11.588;2023-04-10T10:37:31;3.08;;;2.80;;
42420;SDS011;28063;48.140;11.588;2023-04-10T10:40:06;2.55;;;2.35;;
42420;SDS011;28063;48.140;11.588;2023-04-10T10:45:29;2.70;;;2.50;;
42420;SDS011;28063;48.140;11.588;2023-04-10T10:47:58;2.67;;;2.22;;
42420;SDS011;28063;48.140;11.588;2023-04-10T10:50:24;3.90;;;3.50;;
42420;SDS011;28063;48.140;11.588;2023-04-10T10:53:10;3.20;;;2.90;;
42420;SDS011;28063;48.140;11.588;2023-04-10T10:58:49;3.97;;;2.80;;
42420;SDS011;28063;48.140;11.588;2023-04-10T11:01:17;2.72;;;2.35;;
42420;SDS011;28063;48.140;11.588;2023-04-10T11:03:44;3.38;;;2.90;;
42420;SDS011;28063;48.140;11.588;2023-04-10T11:06:16;3.13;;;2.83;;
42420;SDS011;28063;48.140;11.588;2023-04-10T11:08:44;2.80;;;2.60;;
42420;SDS011;28063;48.140;11.588;2023-04-10T11:19:01;2.70;;;2.47;;
42420;SDS011;28063;48.140;11.588;2023-04-10T11:21:27;3.35;;;2.75;;
42420;SDS011;28063;48.140;11.588;2023-04-10T11:31:54;4.40;;;3.75;;
42420;SDS011;28063;48.140;11.588;2023-04-10T11:34:21;2.85;;;2.65;;
42420;SDS011;28063;48.140;11.588;2023-04-10T11:36:47;3.22;;;2.85;;
42420;SDS011;28063;48.140;11.588;2023-04-10T11:39:14;3.15;;;2.85;;
42420;SDS011;28063;48.140;11.588;2023-04-10T11:41:43;3.00;;;2.30;;
42420;SDS011;28063;48.140;11.588;2023-04-10T11:44:11;2.40;;;2.20;;
42420;SDS011;28063;48.140;11.588;2023-04-10T11:46:45;3.47;;;3.17;;
42420;SDS011;28063;48.140;11.588;2023-04-10T11:49:11;3.17;;;2.70;;
42420;SDS011;28063;48.140;11.588;2023-04-10T11:51:46;2.53;;;2.33;;
42420;SDS011;28063;48.140;11.588;2023-04-10T11:54:14;2.53;;;2.33;;
42420;SDS011;28063;48.140;11.588;2023-04-10T11:56:45;2.83;;;2.53;;
42420;SDS011;28063;48.140;11.588;2023-04-10T11:59:35;2.78;;;2.58;;
42420;SDS011;28063;48.140;11.588;2023-04-10T12:04:35;2.45;;;2.25;;
42420;SDS011;28063;48.140;11.588;2023-04-10T12:07:01;2.08;;;1.85;;
42420;SDS011;28063;48.140;11.588;2023-04-10T12:09:27;2.10;;;2.00;;
42420;SDS011;28063;48.140;11.588;2023-04-10T12:11:59;1.88;;;1.77;;
42420;SDS011;28063;48.140;11.588;2023-04-10T12:14:34;1.80;;;1.70;;
42420;SDS011;28063;48.140;11.588;2023-04-10T12:17:05;2.40;;;2.20;;
42420;SDS011;28063;48.140;11.588;2023-04-10T12:19:33;2.10;;;1.90;;
42420;SDS011;28063;48.140;11.588;2023-04-10T12:22:00;2.15;;;1.95;;
42420;SDS011;28063;48.140;11.588;2023-04-10T12:24:43;2.88;;;2.67;;
42420;SDS011;28063;48.140;11.588;2023-04-10T12:27:16;2.10;;;2.00;;
42420;SDS011;28063;48.140;11.588;2023-04-10T12:29:43;2.10;;;2.00;;
42420;SDS011;28063;48.140;11.588;2023-04-10T12:32:10;2.30;;;2.08;;
42420;SDS011;28063;48.140;11.588;2023-04-10T12:34:36;2.70;;;2.45;;
42420;SDS011;28063;48.140;11.588;2023-04-10T12:37:02;3.00;;;2.70;;
42420;SDS011;28063;48.140;11.588;2023-04-10T12:39:28;2.95;;;2.70;;
42420;SDS011;28063;48.140;11.588;2023-04-10T12:45:03;2.95;;;2.67;;
42420;SDS011;28063;48.140;11.588;2023-04-10T12:47:30;2.55;;;2.35;;
42420;SDS011;28063;48.140;11.588;2023-04-10T12:50:09;2.50;;;2.28;;
42420;SDS011;28063;48.140;11.588;2023-04-10T12:52:39;2.60;;;2.40;;
42420;SDS011;28063;48.140;11.588;2023-04-10T12:55:16;2.28;;;2.08;;
42420;SDS011;28063;48.140;11.588;2023-04-10T12:57:44;2.10;;;1.90;;
42420;SDS011;28063;48.140;11.588;2023-04-10T13:00:15;2.35;;;2.15;;
42420;SDS011;28063;48.140;11.588;2023-04-10T13:02:44;2.40;;;2.20;;
42420;SDS011;28063;48.140;11.588;2023-04-10T13:05:12;1.70;;;1.60;;
42420;SDS011;28063;48.140;11.588;2023-04-10T13:07:38;1.73;;;1.63;;
42420;SDS011;28063;48.140;11.588;2023-04-10T13:10:05;1.70;;;1.60;;
42420;SDS011;28063;48.140;11.588;2023-04-10T13:12:31;2.90;;;2.60;;
42420;SDS011;28063;48.140;11.588;2023-04-10T13:14:58;2.05;;;1.95;;
42420;SDS011;28063;48.140;11.588;2023-04-10T13:17:25;1.83;;;1.73;;
42420;SDS011;28063;48.140;11.588;2023-04-10T13:19:51;2.10;;;2.00;;
42420;SDS011;28063;48.140;11.588;2023-04-10T13:22:17;2.00;;;1.90;;
42420;SDS011;28063;48.140;11.588;2023-04-10T13:24:43;1.95;;;1.77;;
42420;SDS011;28063;48.140;11.588;2023-04-10T13:27:09;2.60;;;2.40;;
42420;SDS011;28063;48.140;11.588;2023-04-10T13:29:36;2.20;;;2.00;;
42420;SDS011;28063;48.140;11.588;2023-04-10T13:32:06;2.28;;;2.08;;
42420;SDS011;28063;48.140;11.588;2023-04-10T13:34:32;2.00;;;1.90;;
42420;SDS011;28063;48.140;11.588;2023-04-10T13:36:59;1.77;;;1.60;;
42420;SDS011;28063;48.140;11.588;2023-04-10T13:39:25;2.17;;;1.98;;
42420;SDS011;28063;48.140;11.588;2023-04-10T13:41:52;1.73;;;1.63;;
42420;SDS011;28063;48.140;11.588;2023-04-10T13:44:19;1.73;;;1.63;;
42420;SDS011;28063;48.140;11.588;2023-04-10T13:46:44;2.28;;;2.05;;
42420;SDS011;28063;48.140;11.588;2023-04-10T13:49:10;2.20;;;1.83;;
42420;SDS011;28063;48.140;11.588;2023-04-10T13:51:35;2.15;;;1.95;;
42420;SDS011;28063;48.140;11.588;2023-04-10T13:54:02;2.47;;;2.28;;
42420;SDS011;28063;48.140;11.588;2023-04-10T13:56:28;2.30;;;2.10;;
42420;SDS011;28063;48.140;11.588;2023-04-10T13:58:54;2.03;;;1.92;;
42420;SDS011;28063;48.140;11.588;2023-04-10T14:01:20;2.60;;;2.10;;
42420;SDS011;28063;48.140;11.588;2023-04-10T14:03:46;1.80;;;1.70;;
42420;SDS011;28063;48.140;11.588;2023-04-10T14:06:12;2.33;;;2.13;;
42420;SDS011;28063;48.140;11.588;2023-04-10T14:08:38;2.20;;;2.10;;
42420;SDS011;28063;48.140;11.588;2023-04-10T14:11:04;1.63;;;1.52;;
42420;SDS011;28063;48.140;11.588;2023-04-10T14:13:29;1.83;;;1.73;;
42420;SDS011;28063;48.140;11.588;2023-04-10T14:15:55;3.08;;;2.50;;
42420;SDS011;28063;48.140;11.588;2023-04-10T14:18:21;2.15;;;1.95;;
42420;SDS011;28063;48.140;11.588;2023-04-10T14:20:46;2.38;;;2.17;;
42420;SDS011;28063;48.140;11.588;2023-04-10T14:23:12;2.28;;;2.17;;
42420;SDS011;28063;48.140;11.588;2023-04-10T14:25:43;2.10;;;1.90;;
42420;SDS011;28063;48.140;11.588;2023-04-10T14:28:09;2.40;;;2.20;;
42420;SDS011;28063;48.140;11.588;2023-04-10T14:33:16;2.60;;;2.40;;
42420;SDS011;28063;48.140;11.588;2023-04-10T14:35:43;2.35;;;2.15;;
42420;SDS011;28063;48.140;11.588;2023-04-10T14:38:09;3.05;;;2.72;;
42420;SDS011;28063;48.140;11.588;2023-04-10T14:40:35;2.60;;;2.03;;
42420;SDS011;28063;48.140;11.588;2023-04-10T14:43:01;2.35;;;1.90;;
42420;SDS011;28063;48.140;11.588;2023-04-10T14:45:28;1.77;;;1.67;;
42420;SDS011;28063;48.140;11.588;2023-04-10T14:47:57;1.83;;;1.73;;
42420;SDS011;28063;48.140;11.588;2023-04-10T14:50:23;2.65;;;2.45;;
42420;SDS011;28063;48.140;11.588;2023-04-10T14:52:52;1.80;;;1.70;;
42420;SDS011;28063;48.140;11.588;2023-04-10T14:55:17;2.20;;;2.00;;
42420;SDS011;28063;48.140;11.588;2023-04-10T14:57:43;2.42;;;2.22;;
42420;SDS011;28063;48.140;11.588;2023-04-10T15:00:09;2.88;;;2.47;;
42420;SDS011;28063;48.140;11.588;2023-04-10T15:02:35;2.30;;;2.10;;
42420;SDS011;28063;48.140;11.588;2023-04-10T15:05:02;2.13;;;1.92;;
42420;SDS011;28063;48.140;11.588;2023-04-10T15:07:28;2.28;;;2.03;;
42420;SDS011;28063;48.140;11.588;2023-04-10T15:09:57;1.58;;;1.48;;
42420;SDS011;28063;48.140;11.588;2023-04-10T15:12:23;1.73;;;1.63;;
42420;SDS011;28063;48.140;11.588;2023-04-10T15:14:52;1.70;;;1.60;;
42420;SDS011;28063;48.140;11.588;2023-04-10T15:17:21;1.63;;;1.52;;
42420;SDS011;28063;48.140;11.588;2023-04-10T15:19:47;1.30;;;1.20;;
42420;SDS011;28063;48.140;11.588;2023-04-10T15:22:13;1.42;;;1.33;;
42420;SDS011;28063;48.140;11.588;2023-04-10T15:24:39;1.58;;;1.48;;